createdAt,value
2023-01-31T00:01:36.372Z,6.40
2023-01-31T00:04:09.879Z,6.23
2023-01-31T00:06:42.596Z,6.27
2023-01-31T00:09:11.010Z,6.17
2023-01-31T00:11:38.608Z,6.17
2023-01-31T00:14:07.775Z,5.93
2023-01-31T00:16:35.097Z,6.37
2023-01-31T00:19:02.702Z,6.53
2023-01-31T00:21:30.987Z,6.00
2023-01-31T00:24:00.017Z,6.03
2023-01-31T00:26:33.043Z,6.20
2023-01-31T00:29:04.496Z,6.27
2023-01-31T00:31:33.726Z,5.73
2023-01-31T00:34:01.138Z,6.57
2023-01-31T00:36:30.719Z,5.93
2023-01-31T00:39:00.068Z,5.87
2023-01-31T00:41:29.130Z,6.03
2023-01-31T00:43:56.189Z,5.73
2023-01-31T00:46:23.903Z,5.73
2023-01-31T00:48:51.518Z,5.83
2023-01-31T00:51:19.917Z,5.57
2023-01-31T00:53:47.230Z,6.10
2023-01-31T00:56:22.874Z,5.70
2023-01-31T00:58:50.543Z,6.10
2023-01-31T01:01:23.645Z,5.57
2023-01-31T01:04:08.920Z,5.80
2023-01-31T01:06:38.330Z,5.40
2023-01-31T01:09:05.122Z,5.60
2023-01-31T01:11:33.467Z,5.63
2023-01-31T01:14:02.706Z,5.80
2023-01-31T01:16:36.818Z,5.33
2023-01-31T01:19:12.170Z,6.20
2023-01-31T01:21:41.842Z,5.77
2023-01-31T01:24:14.319Z,5.73
2023-01-31T01:26:41.359Z,5.47
2023-01-31T01:29:08.446Z,5.87
2023-01-31T01:31:35.887Z,5.80
2023-01-31T01:34:07.003Z,5.87
2023-01-31T01:36:35.961Z,5.53
2023-01-31T01:39:05.168Z,5.77
2023-01-31T01:41:36.168Z,5.43
2023-01-31T01:44:45.250Z,5.13
2023-01-31T01:47:35.053Z,5.53
2023-01-31T01:50:07.706Z,5.30
2023-01-31T01:52:39.464Z,5.80
2023-01-31T01:55:19.137Z,5.33
2023-01-31T01:57:49.701Z,6.10
2023-01-31T02:00:29.999Z,5.57
2023-01-31T02:02:59.507Z,5.97
2023-01-31T02:05:33.222Z,5.77
2023-01-31T02:08:02.243Z,6.10
2023-01-31T02:10:55.890Z,4.97
2023-01-31T02:13:23.362Z,5.30
2023-01-31T02:15:50.356Z,5.70
2023-01-31T02:18:20.745Z,5.17
2023-01-31T02:21:15.705Z,5.57
2023-01-31T02:24:04.098Z,5.57
2023-01-31T02:26:57.951Z,4.83
2023-01-31T02:30:02.584Z,5.23
2023-01-31T02:32:32.171Z,5.17
2023-01-31T02:35:29.749Z,4.87
2023-01-31T02:38:24.331Z,5.20
2023-01-31T02:41:26.351Z,5.20
2023-01-31T02:44:43.100Z,5.30
2023-01-31T02:47:32.432Z,5.37
2023-01-31T02:50:11.974Z,4.90
2023-01-31T02:52:58.178Z,5.50
2023-01-31T02:56:03.059Z,5.13
2023-01-31T02:58:34.761Z,4.90
2023-01-31T03:01:04.205Z,4.70
2023-01-31T03:03:35.860Z,4.83
2023-01-31T03:06:23.265Z,5.20
2023-01-31T03:09:07.365Z,4.90
2023-01-31T03:11:55.030Z,4.67
2023-01-31T03:14:46.494Z,4.40
2023-01-31T03:17:33.088Z,4.80
2023-01-31T03:20:10.614Z,4.80
2023-01-31T03:22:51.714Z,5.27
2023-01-31T03:25:22.107Z,4.80
2023-01-31T03:27:56.252Z,4.50
2023-01-31T03:30:39.889Z,4.60
2023-01-31T03:33:47.942Z,4.73
2023-01-31T03:36:23.499Z,4.57
2023-01-31T03:39:29.047Z,4.40
2023-01-31T03:42:19.286Z,4.07
2023-01-31T03:45:09.671Z,3.83
2023-01-31T03:47:43.385Z,3.90
2023-01-31T03:50:16.490Z,3.80
2023-01-31T03:53:09.555Z,3.90
2023-01-31T03:55:43.595Z,4.13
2023-01-31T03:58:13.179Z,3.53
2023-01-31T04:00:43.313Z,4.20
2023-01-31T04:03:35.503Z,4.10
2023-01-31T04:06:03.607Z,3.60
2023-01-31T04:08:32.606Z,3.23
2023-01-31T04:11:00.452Z,3.43
2023-01-31T04:13:27.455Z,3.73
2023-01-31T04:15:54.362Z,3.57
2023-01-31T04:18:21.226Z,3.10
2023-01-31T04:20:48.013Z,3.23
2023-01-31T04:23:14.823Z,3.00
2023-01-31T04:25:41.642Z,3.27
2023-01-31T04:28:12.987Z,3.00
2023-01-31T04:30:40.110Z,3.20
2023-01-31T04:33:07.073Z,2.90
2023-01-31T04:35:35.000Z,3.03
2023-01-31T04:38:01.977Z,3.53
2023-01-31T04:40:28.835Z,2.80
2023-01-31T04:42:55.673Z,3.07
2023-01-31T04:45:22.665Z,2.90
2023-01-31T04:47:49.628Z,2.93
2023-01-31T04:50:16.820Z,3.47
2023-01-31T04:52:43.631Z,2.80
2023-01-31T04:55:10.601Z,3.37
2023-01-31T04:57:37.546Z,3.00
2023-01-31T05:00:05.374Z,3.03
2023-01-31T05:02:32.395Z,3.23
2023-01-31T05:04:59.211Z,3.53
2023-01-31T05:07:26.111Z,3.07
2023-01-31T05:09:52.972Z,3.00
2023-01-31T05:12:19.815Z,2.70
2023-01-31T05:14:46.860Z,2.90
2023-01-31T05:17:14.155Z,3.07
2023-01-31T05:19:43.531Z,3.20
2023-01-31T05:22:10.491Z,3.67
2023-01-31T05:24:37.367Z,2.73
2023-01-31T05:27:08.278Z,2.77
2023-01-31T05:29:35.584Z,3.03
2023-01-31T05:32:04.230Z,2.83
2023-01-31T05:34:33.271Z,2.40
2023-01-31T05:37:03.802Z,2.77
2023-01-31T05:39:31.358Z,3.00
2023-01-31T05:41:58.223Z,2.67
2023-01-31T05:44:25.109Z,2.70
2023-01-31T05:46:51.967Z,2.53
2023-01-31T05:49:18.836Z,2.87
2023-01-31T05:51:45.597Z,2.27
2023-01-31T05:54:12.681Z,2.50
2023-01-31T05:56:39.847Z,2.53
2023-01-31T05:59:06.720Z,2.37
2023-01-31T06:01:33.734Z,2.90
2023-01-31T06:04:03.683Z,2.70
2023-01-31T06:06:30.854Z,2.40
2023-01-31T06:08:57.707Z,2.40
2023-01-31T06:11:25.399Z,3.10
2023-01-31T06:13:52.307Z,2.70
2023-01-31T06:16:19.180Z,2.67
2023-01-31T06:18:45.977Z,2.80
2023-01-31T06:21:12.907Z,2.77
2023-01-31T06:23:40.387Z,2.67
2023-01-31T06:26:07.224Z,2.77
2023-01-31T06:28:34.104Z,2.83
2023-01-31T06:31:09.964Z,2.63
2023-01-31T06:33:46.185Z,3.13
2023-01-31T06:36:18.383Z,3.10
2023-01-31T06:38:49.811Z,3.23
2023-01-31T06:41:16.723Z,2.77
2023-01-31T06:43:43.528Z,4.20
2023-01-31T06:46:10.450Z,3.50
2023-01-31T06:48:37.606Z,4.17
2023-01-31T06:51:06.034Z,3.30
2023-01-31T06:53:35.838Z,3.03
2023-01-31T06:56:02.629Z,3.00
2023-01-31T06:58:34.189Z,3.07
2023-01-31T07:01:09.996Z,3.20
2023-01-31T07:03:37.134Z,2.80
2023-01-31T07:06:05.373Z,2.80
2023-01-31T07:08:35.362Z,2.83
2023-01-31T07:11:04.031Z,2.77
2023-01-31T07:13:31.443Z,3.00
2023-01-31T07:15:58.478Z,2.93
2023-01-31T07:18:25.343Z,2.80
2023-01-31T07:20:53.349Z,3.30
2023-01-31T07:23:20.389Z,2.93
2023-01-31T07:25:47.226Z,2.90
2023-01-31T07:28:14.201Z,2.63
2023-01-31T07:30:43.820Z,2.97
2023-01-31T07:33:14.875Z,3.30
2023-01-31T07:35:44.701Z,4.10
2023-01-31T07:38:44.016Z,3.20
2023-01-31T07:41:11.507Z,3.20
2023-01-31T07:43:38.922Z,3.20
2023-01-31T07:46:10.520Z,2.83
2023-01-31T07:48:37.971Z,3.07
2023-01-31T07:51:05.466Z,3.30
2023-01-31T07:53:42.211Z,2.83
2023-01-31T07:56:17.506Z,2.80
2023-01-31T07:58:46.042Z,2.20
2023-01-31T08:01:56.675Z,2.70
2023-01-31T08:04:23.541Z,2.50
2023-01-31T08:07:03.237Z,2.77
2023-01-31T08:09:33.725Z,2.53
2023-01-31T08:12:00.547Z,2.50
2023-01-31T08:14:29.318Z,2.40
2023-01-31T08:16:56.638Z,2.50
2023-01-31T08:19:24.423Z,2.47
2023-01-31T08:21:51.248Z,2.53
2023-01-31T08:24:19.238Z,2.40
2023-01-31T08:26:46.764Z,2.73
2023-01-31T08:29:13.719Z,2.73
2023-01-31T08:31:42.013Z,2.70
2023-01-31T08:34:09.090Z,2.53
2023-01-31T08:36:36.703Z,2.50
2023-01-31T08:39:07.135Z,2.70
2023-01-31T08:41:35.114Z,2.73
2023-01-31T08:44:04.824Z,2.60
2023-01-31T08:46:37.056Z,3.00
2023-01-31T08:49:06.657Z,3.13
2023-01-31T08:51:33.564Z,2.73
2023-01-31T08:54:00.367Z,3.17
2023-01-31T08:56:28.122Z,3.97
2023-01-31T08:58:55.821Z,4.20
2023-01-31T09:01:22.887Z,3.40
2023-01-31T09:03:50.747Z,3.10
2023-01-31T09:06:20.195Z,3.00
2023-01-31T09:08:47.551Z,2.50
2023-01-31T09:11:19.704Z,2.60
2023-01-31T09:13:51.492Z,2.53
2023-01-31T09:16:19.747Z,2.37
2023-01-31T09:18:47.320Z,2.53
2023-01-31T09:21:20.061Z,2.37
2023-01-31T09:23:48.386Z,2.40
2023-01-31T09:26:16.524Z,2.40
2023-01-31T09:28:43.738Z,2.37
2023-01-31T09:31:14.072Z,2.60
2023-01-31T09:33:41.308Z,2.73
2023-01-31T09:36:17.134Z,2.53
2023-01-31T09:38:44.315Z,2.60
2023-01-31T09:41:23.903Z,2.50
2023-01-31T09:44:25.746Z,2.57
2023-01-31T09:46:58.973Z,2.50
2023-01-31T09:49:38.045Z,2.63
2023-01-31T09:52:04.918Z,3.00
2023-01-31T09:54:39.171Z,3.00
2023-01-31T09:57:40.817Z,3.30
2023-01-31T10:00:25.914Z,2.63
2023-01-31T10:03:43.134Z,3.30
2023-01-31T10:06:23.802Z,3.23
2023-01-31T10:09:20.094Z,3.03
2023-01-31T10:11:56.988Z,2.90
2023-01-31T10:14:47.937Z,3.10
2023-01-31T10:17:29.286Z,2.93
2023-01-31T10:20:18.945Z,3.03
2023-01-31T10:23:14.321Z,2.67
2023-01-31T10:25:54.216Z,2.60
2023-01-31T10:28:27.763Z,2.70
2023-01-31T10:31:34.133Z,2.63
2023-01-31T10:34:01.029Z,2.10
2023-01-31T10:36:59.911Z,2.50
2023-01-31T10:39:31.928Z,2.50
2023-01-31T10:42:02.034Z,2.23
2023-01-31T10:44:46.390Z,2.70
2023-01-31T10:47:17.429Z,2.63
2023-01-31T10:49:47.454Z,2.20
2023-01-31T10:52:34.794Z,2.23
2023-01-31T10:55:12.995Z,2.30
2023-01-31T10:57:39.867Z,2.30
2023-01-31T11:00:09.930Z,2.17
2023-01-31T11:02:36.862Z,2.13
2023-01-31T11:05:04.221Z,2.50
2023-01-31T11:07:31.885Z,2.40
2023-01-31T11:09:58.804Z,2.40
2023-01-31T11:12:51.647Z,2.63
2023-01-31T11:15:20.343Z,2.63
2023-01-31T11:17:47.998Z,2.40
2023-01-31T11:20:37.520Z,2.33
2023-01-31T11:23:06.855Z,2.20
2023-01-31T11:25:34.890Z,2.40
2023-01-31T11:28:05.561Z,2.47
2023-01-31T11:30:38.455Z,2.40
2023-01-31T11:33:05.527Z,2.23
2023-01-31T11:35:34.530Z,2.57
2023-01-31T11:38:20.327Z,2.03
2023-01-31T11:40:47.181Z,2.07
2023-01-31T11:43:16.967Z,1.93
2023-01-31T11:45:47.517Z,2.00
2023-01-31T11:48:22.361Z,2.13
2023-01-31T11:50:58.797Z,2.17
2023-01-31T11:53:32.206Z,2.60
2023-01-31T11:56:13.410Z,2.93
2023-01-31T11:58:42.053Z,2.50
2023-01-31T12:01:22.775Z,2.40
2023-01-31T12:04:04.236Z,2.50
2023-01-31T12:06:36.872Z,3.00
2023-01-31T12:09:25.053Z,2.83
2023-01-31T12:12:05.334Z,2.60
2023-01-31T12:14:39.645Z,3.00
2023-01-31T12:17:15.154Z,2.90
2023-01-31T12:20:14.258Z,2.80
2023-01-31T12:23:16.819Z,2.60
2023-01-31T12:25:54.707Z,2.80
2023-01-31T12:28:59.875Z,2.93
2023-01-31T12:31:39.625Z,2.90
2023-01-31T12:34:19.268Z,2.77
2023-01-31T12:37:18.030Z,2.90
2023-01-31T12:39:50.795Z,2.57
2023-01-31T12:42:46.770Z,2.87
2023-01-31T12:45:38.425Z,2.23
2023-01-31T12:48:33.443Z,2.57
2023-01-31T12:51:31.299Z,2.03
2023-01-31T12:54:10.467Z,2.30
2023-01-31T12:56:59.605Z,2.40
2023-01-31T12:59:32.642Z,2.30
2023-01-31T13:02:08.529Z,2.50
2023-01-31T13:04:44.571Z,2.20
2023-01-31T13:07:46.036Z,2.20
2023-01-31T13:10:38.079Z,2.13
2023-01-31T13:13:10.271Z,2.00
2023-01-31T13:15:47.380Z,1.57
2023-01-31T13:18:15.614Z,1.87
2023-01-31T13:20:57.936Z,1.83
2023-01-31T13:23:36.325Z,1.83
2023-01-31T13:26:23.235Z,2.00
2023-01-31T13:29:14.170Z,2.20
2023-01-31T13:32:06.771Z,2.70
2023-01-31T13:34:59.152Z,2.00
2023-01-31T13:37:30.345Z,1.90
2023-01-31T13:40:22.685Z,2.13
2023-01-31T13:42:54.276Z,1.83
2023-01-31T13:45:48.462Z,2.20
2023-01-31T13:48:53.008Z,2.10
2023-01-31T13:51:46.622Z,2.40
2023-01-31T13:54:31.366Z,2.50
2023-01-31T13:57:00.931Z,2.50
2023-01-31T13:59:31.729Z,2.60
2023-01-31T14:02:05.002Z,2.43
2023-01-31T14:04:39.816Z,2.70
2023-01-31T14:07:07.140Z,2.70
2023-01-31T14:09:42.461Z,2.77
2023-01-31T14:12:18.010Z,3.07
2023-01-31T14:14:52.661Z,3.00
2023-01-31T14:17:28.330Z,2.60
2023-01-31T14:19:56.799Z,2.77
2023-01-31T14:22:41.342Z,3.10
2023-01-31T14:25:11.264Z,2.83
2023-01-31T14:27:40.111Z,2.80
2023-01-31T14:30:07.980Z,3.20
2023-01-31T14:32:50.176Z,3.10
2023-01-31T14:35:16.958Z,3.07
2023-01-31T14:38:18.617Z,2.97
2023-01-31T14:41:16.586Z,3.30
2023-01-31T14:43:43.331Z,3.13
2023-01-31T14:46:16.051Z,3.17
2023-01-31T14:49:03.976Z,3.13
2023-01-31T14:51:59.614Z,3.27
2023-01-31T14:54:57.594Z,3.47
2023-01-31T14:57:29.407Z,3.57
2023-01-31T15:00:18.726Z,3.23
2023-01-31T15:03:10.276Z,3.47
2023-01-31T15:05:37.538Z,3.63
2023-01-31T15:08:13.565Z,3.73
2023-01-31T15:11:41.549Z,3.97
2023-01-31T15:14:34.692Z,4.13
2023-01-31T15:17:35.602Z,3.90
2023-01-31T15:20:12.507Z,4.07
2023-01-31T15:22:41.588Z,4.10
2023-01-31T15:25:25.067Z,4.60
2023-01-31T15:27:55.083Z,3.90
2023-01-31T15:30:23.385Z,3.50
2023-01-31T15:33:08.790Z,3.70
2023-01-31T15:35:49.771Z,3.60
2023-01-31T15:38:22.027Z,3.70
2023-01-31T15:41:11.003Z,3.87
2023-01-31T15:43:39.597Z,4.20
2023-01-31T15:46:14.919Z,4.17
2023-01-31T15:48:43.838Z,4.17
2023-01-31T15:51:13.980Z,4.50
2023-01-31T15:53:43.028Z,4.50
2023-01-31T15:56:23.858Z,4.20
2023-01-31T15:58:54.315Z,3.90
2023-01-31T16:01:21.393Z,4.03
2023-01-31T16:03:57.262Z,4.23
2023-01-31T16:06:27.010Z,4.30
2023-01-31T16:09:02.269Z,4.23
2023-01-31T16:11:33.453Z,5.10
2023-01-31T16:14:03.751Z,4.37
2023-01-31T16:16:33.750Z,4.70
2023-01-31T16:19:01.848Z,4.93
2023-01-31T16:21:39.546Z,4.90
2023-01-31T16:24:16.622Z,5.03
2023-01-31T16:27:06.679Z,4.80
2023-01-31T16:29:46.793Z,4.77
2023-01-31T16:32:21.330Z,4.67
2023-01-31T16:35:07.242Z,4.77
2023-01-31T16:37:34.096Z,4.90
2023-01-31T16:40:05.599Z,4.23
2023-01-31T16:42:35.308Z,4.67
2023-01-31T16:45:03.167Z,4.77
2023-01-31T16:47:51.000Z,4.47
2023-01-31T16:50:17.865Z,5.13
2023-01-31T16:52:46.207Z,4.70
2023-01-31T16:55:15.660Z,5.50
2023-01-31T16:57:42.527Z,4.70
2023-01-31T17:00:31.425Z,4.83
2023-01-31T17:03:00.242Z,5.10
2023-01-31T17:05:35.986Z,4.53
2023-01-31T17:08:04.079Z,5.23
2023-01-31T17:10:34.150Z,4.93
2023-01-31T17:13:09.827Z,4.80
2023-01-31T17:15:36.711Z,5.07
2023-01-31T17:18:03.598Z,4.87
2023-01-31T17:20:30.467Z,4.63
2023-01-31T17:23:03.021Z,4.90
2023-01-31T17:25:34.025Z,5.20
2023-01-31T17:28:01.086Z,5.10
2023-01-31T17:30:30.468Z,5.13
2023-01-31T17:32:58.689Z,4.60
2023-01-31T17:35:43.554Z,5.07
2023-01-31T17:38:11.113Z,5.40
2023-01-31T17:40:40.305Z,5.63
2023-01-31T17:43:08.023Z,5.83
2023-01-31T17:45:35.325Z,6.07
2023-01-31T17:48:02.145Z,5.80
2023-01-31T17:50:29.275Z,7.07
2023-01-31T17:52:56.593Z,5.90
2023-01-31T17:55:25.621Z,5.93
2023-01-31T17:57:52.817Z,6.17
2023-01-31T18:00:21.106Z,5.73
2023-01-31T18:02:48.029Z,6.13
2023-01-31T18:05:20.179Z,5.50
2023-01-31T18:07:49.800Z,6.43
2023-01-31T18:10:17.325Z,5.67
2023-01-31T18:12:44.921Z,5.77
2023-01-31T18:15:12.267Z,5.87
2023-01-31T18:17:39.047Z,4.93
2023-01-31T18:20:06.667Z,5.60
2023-01-31T18:22:33.738Z,6.10
2023-01-31T18:25:00.586Z,5.47
2023-01-31T18:27:27.499Z,5.60
2023-01-31T18:29:55.711Z,5.33
2023-01-31T18:32:22.603Z,5.27
2023-01-31T18:34:49.448Z,5.87
2023-01-31T18:37:20.269Z,6.20
2023-01-31T18:39:52.108Z,6.23
2023-01-31T18:42:20.269Z,6.10
2023-01-31T18:44:47.384Z,6.20
2023-01-31T18:47:15.623Z,6.83
2023-01-31T18:49:42.955Z,6.60
2023-01-31T18:52:10.519Z,7.03
2023-01-31T18:54:37.991Z,7.17
2023-01-31T18:57:05.426Z,7.23
2023-01-31T18:59:34.712Z,7.23
2023-01-31T19:02:05.796Z,7.47
2023-01-31T19:04:32.869Z,6.93
2023-01-31T19:06:59.653Z,7.77
2023-01-31T19:09:26.498Z,7.53
2023-01-31T19:11:53.403Z,7.80
2023-01-31T19:14:20.385Z,7.87
2023-01-31T19:16:49.298Z,7.70
2023-01-31T19:19:16.420Z,8.50
2023-01-31T19:21:43.375Z,8.13
2023-01-31T19:24:14.281Z,8.03
2023-01-31T19:26:42.232Z,8.30
2023-01-31T19:29:13.729Z,8.47
2023-01-31T19:31:40.721Z,8.07
2023-01-31T19:34:07.881Z,7.67
2023-01-31T19:36:40.533Z,8.33
2023-01-31T19:39:10.551Z,7.97
2023-01-31T19:41:37.757Z,8.03
2023-01-31T19:44:04.900Z,8.23
2023-01-31T19:46:34.680Z,7.20
2023-01-31T19:49:01.936Z,8.00
2023-01-31T19:51:28.954Z,7.77
2023-01-31T19:54:04.264Z,7.43
2023-01-31T19:56:32.056Z,7.93
2023-01-31T19:59:00.054Z,7.23
2023-01-31T20:01:26.931Z,7.77
2023-01-31T20:03:54.661Z,7.40
2023-01-31T20:06:25.669Z,7.13
2023-01-31T20:08:58.571Z,7.27
2023-01-31T20:11:27.238Z,7.77
2023-01-31T20:13:55.348Z,7.57
2023-01-31T20:16:22.974Z,7.40
2023-01-31T20:18:51.373Z,7.53
2023-01-31T20:21:19.819Z,7.60
2023-01-31T20:23:46.829Z,7.57
2023-01-31T20:26:25.072Z,7.63
2023-01-31T20:28:52.226Z,7.03
2023-01-31T20:31:19.438Z,6.87
2023-01-31T20:33:46.388Z,7.53
2023-01-31T20:36:13.613Z,7.60
2023-01-31T20:38:40.569Z,7.57
2023-01-31T20:41:10.102Z,8.00
2023-01-31T20:43:37.558Z,8.13
2023-01-31T20:46:10.251Z,8.33
2023-01-31T20:48:37.754Z,8.57
2023-01-31T20:51:05.147Z,8.00
2023-01-31T20:53:32.840Z,7.87
2023-01-31T20:56:03.057Z,7.97
2023-01-31T20:58:32.312Z,7.70
2023-01-31T21:01:05.363Z,7.83
2023-01-31T21:03:33.564Z,7.40
2023-01-31T21:06:01.641Z,7.27
2023-01-31T21:08:29.315Z,7.47
2023-01-31T21:10:58.453Z,7.03
2023-01-31T21:13:31.546Z,7.40
2023-01-31T21:16:01.919Z,7.10
2023-01-31T21:18:30.536Z,6.93
2023-01-31T21:20:57.675Z,7.20
2023-01-31T21:23:25.317Z,7.00
2023-01-31T21:25:53.094Z,7.43
2023-01-31T21:28:20.115Z,7.77
2023-01-31T21:31:06.678Z,7.20
2023-01-31T21:33:33.625Z,7.97
2023-01-31T21:36:07.483Z,7.93
2023-01-31T21:38:34.449Z,8.17
2023-01-31T21:41:20.181Z,8.10
2023-01-31T21:43:48.132Z,7.67
2023-01-31T21:46:15.349Z,7.97
2023-01-31T21:48:42.776Z,8.37
2023-01-31T21:51:12.298Z,8.33
2023-01-31T21:53:40.057Z,7.97
2023-01-31T21:56:09.019Z,8.10
2023-01-31T21:58:37.804Z,7.77
2023-01-31T22:01:18.145Z,7.07
2023-01-31T22:03:48.710Z,7.23
2023-01-31T22:06:18.550Z,7.03
2023-01-31T22:08:45.761Z,6.80
2023-01-31T22:11:14.563Z,7.67
2023-01-31T22:13:45.314Z,6.93
2023-01-31T22:16:13.875Z,6.57
2023-01-31T22:18:42.117Z,6.50
2023-01-31T22:21:15.203Z,7.30
2023-01-31T22:23:46.367Z,7.43
2023-01-31T22:26:25.317Z,7.10
2023-01-31T22:28:54.260Z,7.27
2023-01-31T22:31:23.846Z,7.23
2023-01-31T22:33:51.357Z,7.87
2023-01-31T22:36:18.860Z,7.83
2023-01-31T22:38:46.576Z,7.57
2023-01-31T22:41:17.618Z,7.47
2023-01-31T22:43:48.185Z,8.43
2023-01-31T22:46:17.740Z,8.27
2023-01-31T22:48:44.711Z,8.17
2023-01-31T22:51:14.443Z,7.97
2023-01-31T22:53:42.197Z,9.00
2023-01-31T22:56:16.814Z,8.03
2023-01-31T22:58:43.845Z,8.23
2023-01-31T23:01:21.784Z,7.97
2023-01-31T23:03:49.236Z,8.10
2023-01-31T23:06:17.744Z,8.20
2023-01-31T23:08:44.754Z,7.73
2023-01-31T23:11:14.810Z,8.50
2023-01-31T23:13:42.293Z,9.17
2023-01-31T23:16:14.585Z,8.73
2023-01-31T23:18:41.736Z,9.10
2023-01-31T23:21:16.919Z,9.63
2023-01-31T23:23:44.944Z,9.67
2023-01-31T23:26:12.863Z,10.03
2023-01-31T23:28:40.159Z,10.10
2023-01-31T23:31:07.202Z,10.00
2023-01-31T23:33:34.173Z,10.27
2023-01-31T23:36:01.230Z,9.90
2023-01-31T23:38:28.070Z,9.90
2023-01-31T23:40:55.001Z,10.80
2023-01-31T23:43:22.927Z,10.10
2023-01-31T23:45:49.777Z,10.37
2023-01-31T23:48:16.891Z,10.07
2023-01-31T23:50:43.834Z,9.87
2023-01-31T23:53:10.772Z,8.87
2023-01-31T23:55:37.800Z,8.93
2023-01-31T23:58:04.758Z,8.67
